Marticot Island, Newfoundland and Labrador

Past 24 Hour Conditions

This table is a summary of hourly weather conditions for the past 24 hours. This summary includes the following parameters: temperature, humidity, dew point, wind speed and direction, air pressure, visibility and/or wind chill and humidex.
Date / Time
(ADT)
Conditions Temp (°C) Humidity (%) Dew Point (°C) Wind (km/h) Pressure (kPa) Vis (km) Wind Chill
20 April 2014
20:00 N/A 2 44 -9 NNW 34 gust 43 101.7 N/A *
19:00 N/A 3 34 -12 NNW 30 gust 41 101.6 N/A *
18:00 N/A 4 31 -12 NNW 30 gust 46 101.5 N/A *
17:00 N/A 4 35 -10 NW 28 gust 43 101.4 N/A *
16:00 N/A 5   45 -6 WNW 26 gust 42 101.4 N/A *
15:00 N/A 4 45 -6 WNW 28 gust 41 101.4 N/A *
14:00 N/A 4 43 -8 NW 32 gust 49 101.4 N/A *
13:00 N/A 3 52 -6 NW 28 gust 38 101.4 N/A *
12:00 N/A 2 53 -7 NW 28 gust 42 101.5 N/A *
11:00 N/A 1 58 -7 NW 31 gust 40 101.4 N/A *
10:00 N/A 0 70 -5 NNW 30 gust 46 101.4 N/A -7
9:00 N/A -1 76 -4 NNW 33 gust 44 101.4 N/A -8
8:00 N/A -1 78 -4 NNW 17 gust 37 101.3 N/A -6
7:00 N/A -1 78 -4 NNW 29 gust 41 101.2 N/A -8
6:00 N/A -2   83 -4 NW 16 gust 28 101.1 N/A -7
5:00 N/A -2   81 -4 NNW 25 gust 36 101.0 N/A -8
4:00 N/A -1 83 -4 NNW 27 gust 38 100.9 N/A -8
3:00 N/A -2   89 -3 NNW 28 gust 36 100.8 N/A -9
2:00 N/A -2   89 -3 NNW 30 gust 39 100.8 N/A -8
1:00 N/A -1 93 -2 NNW 29 100.8 N/A -8
00:00 N/A -1 97 -2 NNW 18 100.8 N/A -7
19 April 2014
23:00 N/A -1 95 -2 NNW 20 gust 30 100.8 N/A -7
22:00 N/A -1 97 -1 NNW 19 100.8 N/A -6
21:00 N/A 0 96 -1 NNW 19 100.8 N/A -6
20:00 N/A -1 97 -1 N 12 100.8 N/A -4
N/A
Not available
 ↑ 
Highest temperature
 ↓ 
Lowest temperature
*
Value not significant.

If you require additional historical weather information, please visit Climate Data Online.